Airfield :
LOGIN :

Register | Disclaimer

   EN    FR    IT 

 










Legend :    VFR   Marginal VFR   IFR   Intensive IFR   Very Intensive IFR
Visi :
Ceiling :
>= 8 km
>= 3000ft
5 to 8 km
1000 to 3000 ft
1500m to 5 km
500 to 1000 ft
800 to 1500m
200 to 500 ft
< 800m
< 200 ft
Symbols :   Thunderstorms  Fog  Heavy snow  Heavy precipitations  Wind > 20 kt
SIGMETs :     Misc.  Thunderstorms  Icing  Turbulence  Mountain Waves  Volcanic Ashes







- Airport Elevation : 183 ft
- IATA code : HAJ


EDDV - Hanover/Langenhagen Int.

CURRENT METAR :
  • 231920Z 28008KT 9999 SCT045 BKN090 08/07 Q1014 NOSIG

EXPIRED METARs :
  • 231850Z 28006KT 250V310 9999 -RA FEW010 BKN042 08/07 Q1013 NOSIG
  • 231820Z 28009KT 250V310 9999 -RA FEW010 OVC035 09/08 Q1012 NOSIG
  • 231750Z 30009KT 9999 -RA FEW010 OVC037 08/07 Q1012 NOSIG
  • 231720Z 32009KT 290V010 9999 -RA FEW010 OVC041 09/08 Q1011 TEMPO BKN010
  • 231650Z 31008KT 9999 -RA FEW007 OVC034 09/08 Q1010 TEMPO 4000 RA BKN007

TAF TAF EDDV
Valid from the 23 at 18:00 until the 24 at 18:00 UTC


231700Z 2318/2418 31010KT 9999 BKN025
TEMPO 2318/2321 BKN010
TEMPO 2404/2416 32015G35KT 4000 SHRA BKN020CB
No reported NOTAMs for that airfield.
2 SIGMETs reported for the Bremen FIR (EDWW) :
 
Severe icing
EDWW SIGMET 3 VALID 231927/232200 EDZH
EDWW BREMEN FIR SEV ICE OBS S OF N5240 AND E OF E01205 FL070/230 MOV ESE NC=
Severe turbulence
EDWW SIGMET 2 VALID 231730/232130 EDZH
EDWW BREMEN FIR SEV TURB FCST SE OF LINE N5202 E00856 - N5243 E01445 FL150/245 MOV E WKN=



MET'MAP, your aeronautical weather chart ! - Copyright ORBIFLY December 2007 - Disclaimer

ORBIFLY MET'MAP TEAM :

Programming & Development : Alexandra Zaïnal
Concept & Development : Baudouin d'Aumeries
Co-Development & Prog : Marc-Olivier Méhu
Technical & hardware support : Manuel Goepfert

Contact : metmap@orbifly.com




SOURCES & CREDITS :

   NOAA